Rockingham, Australia
Current Conditions -  °F | °C
As of 11:30 AM on Saturday 20 Dec 2014 (Local Time) from YPJT Reporting Station
Clear Clear  
Wind Chill: 81°   Ceiling: Unl
Heat Index: 81°   Visibility: 6mi
Dew Point: 59°   Wind: 18mph
Humidity: 48%   Direction: 220°SW
Pressure: 29.8"   Gusts: NA
Location:  32.28°S, 115.73°E
Report Text: YPJT 200330Z AUTO 22016KT 9999 // NCD 27/15 Q1009
Loading
Personal Weather Stations






























Interactive Weather Map New forecast layout! Learn more

10-Day Weather Forecast

Advertisements
Track Severe Weather on mobile